createdAt,value
2022-09-05T00:00:11.979Z,4.38
2022-09-05T00:03:12.360Z,3.92
2022-09-05T00:06:10.997Z,3.88
2022-09-05T00:09:30.625Z,3.85
2022-09-05T00:12:19.812Z,3.42
2022-09-05T00:15:30.922Z,3.78
2022-09-05T00:23:38.653Z,4.70
2022-09-05T00:24:36.584Z,4.43
2022-09-05T00:28:38.602Z,3.88
2022-09-05T00:31:59.166Z,4.25
2022-09-05T00:35:44.843Z,4.20
2022-09-05T00:41:26.261Z,4.07
2022-09-05T00:44:19.869Z,4.57
2022-09-05T00:47:57.236Z,4.00
2022-09-05T00:51:03.277Z,3.85
2022-09-05T00:54:41.139Z,4.10
2022-09-05T00:58:08.025Z,4.40
2022-09-05T01:00:58.871Z,4.28
2022-09-05T01:04:11.312Z,3.45
2022-09-05T01:07:10.510Z,4.70
2022-09-05T01:10:26.295Z,3.80
2022-09-05T01:13:41.349Z,4.63
2022-09-05T01:16:45.618Z,4.80
2022-09-05T01:20:19.751Z,4.63
2022-09-05T01:23:20.495Z,4.60
2022-09-05T01:26:11.302Z,4.80
2022-09-05T01:29:19.618Z,4.82
2022-09-05T01:32:32.234Z,4.30
2022-09-05T01:35:57.810Z,4.22
2022-09-05T01:40:10.437Z,4.68
2022-09-05T01:43:25.637Z,4.53
2022-09-05T01:46:59.176Z,4.82
2022-09-05T01:50:12.475Z,4.90
2022-09-05T01:53:25.566Z,5.15
2022-09-05T01:57:09.882Z,4.93
2022-09-05T02:00:16.796Z,5.65
2022-09-05T02:03:37.914Z,5.05
2022-09-05T02:06:56.062Z,4.97
2022-09-05T02:10:09.525Z,5.03
2022-09-05T02:13:28.975Z,5.68
2022-09-05T02:16:38.145Z,4.68
2022-09-05T02:19:30.771Z,5.15
2022-09-05T02:22:29.202Z,5.20
2022-09-05T02:26:00.327Z,4.63
2022-09-05T02:29:02.319Z,5.55
2022-09-05T02:31:56.859Z,5.60
2022-09-05T02:35:14.841Z,5.03
2022-09-05T02:43:43.720Z,5.05
2022-09-05T02:45:17.493Z,5.97
2022-09-05T02:45:53.350Z,5.50
2022-09-05T02:48:57.404Z,5.20
2022-09-05T02:57:29.248Z,5.25
2022-09-05T02:57:33.109Z,6.03
2022-09-05T02:59:36.617Z,5.55
2022-09-05T03:02:40.380Z,5.82
2022-09-05T03:05:37.357Z,5.40
2022-09-05T03:08:43.703Z,6.07
2022-09-05T03:12:28.382Z,5.88
2022-09-05T03:15:54.129Z,5.53
2022-09-05T03:21:58.714Z,5.50
2022-09-05T03:25:22.788Z,5.40
2022-09-05T03:28:33.195Z,4.88
2022-09-05T03:31:54.068Z,5.25
2022-09-05T03:35:19.629Z,5.60
2022-09-05T03:38:37.814Z,5.45
2022-09-05T03:41:49.244Z,5.20
2022-09-05T03:45:02.998Z,6.20
2022-09-05T03:48:32.251Z,5.10
2022-09-05T03:57:10.413Z,5.65
2022-09-05T03:57:14.380Z,5.20
2022-09-05T03:59:41.357Z,7.25
2022-09-05T04:08:06.333Z,6.88
2022-09-05T04:08:30.794Z,5.75
2022-09-05T04:10:01.937Z,5.85
2022-09-05T04:13:08.919Z,5.47
2022-09-05T04:16:23.284Z,6.32
2022-09-05T04:19:30.037Z,5.78
2022-09-05T04:22:26.589Z,6.03
2022-09-05T04:25:42.429Z,5.70
2022-09-05T04:29:18.129Z,6.25
2022-09-05T04:32:35.214Z,5.32
2022-09-05T04:35:30.849Z,6.18
2022-09-05T04:38:36.410Z,6.57
2022-09-05T04:41:39.410Z,5.60
2022-09-05T04:44:39.825Z,5.90
2022-09-05T04:47:39.423Z,5.72
2022-09-05T04:50:35.221Z,5.82
2022-09-05T04:53:57.016Z,6.50
2022-09-05T04:56:49.675Z,5.57
2022-09-05T05:03:39.208Z,5.78
2022-09-05T05:06:14.656Z,6.15
2022-09-05T05:06:38.050Z,6.18
2022-09-05T05:09:40.049Z,6.43
2022-09-05T05:17:59.392Z,7.10
2022-09-05T05:18:08.141Z,6.23
2022-09-05T05:19:47.297Z,5.78
2022-09-05T05:23:15.560Z,6.35
2022-09-05T05:26:09.512Z,6.47
2022-09-05T05:29:19.309Z,6.40
2022-09-05T05:32:08.133Z,6.30
2022-09-05T05:35:24.052Z,7.10
2022-09-05T05:38:17.866Z,6.68
2022-09-05T05:41:46.654Z,7.10
2022-09-05T05:44:37.128Z,7.55
2022-09-05T05:47:32.644Z,6.60
2022-09-05T05:50:40.628Z,6.68
2022-09-05T05:53:52.532Z,9.77
2022-09-05T05:57:41.234Z,10.05
2022-09-05T06:00:55.063Z,8.98
2022-09-05T06:04:27.617Z,10.57
2022-09-05T06:08:23.873Z,7.95
2022-09-05T06:14:50.946Z,6.85
2022-09-05T06:15:10.726Z,6.68
2022-09-05T06:18:40.394Z,6.32
2022-09-05T06:22:13.235Z,6.85
2022-09-05T06:25:17.074Z,6.68
2022-09-05T06:28:25.601Z,6.45
2022-09-05T06:31:36.925Z,7.18
2022-09-05T06:35:00.158Z,6.32
2022-09-05T06:38:35.983Z,6.15
2022-09-05T06:41:45.444Z,6.13
2022-09-05T06:45:27.954Z,5.50
2022-09-05T06:49:32.108Z,5.47
2022-09-05T06:52:57.118Z,5.43
2022-09-05T06:56:26.623Z,4.57
2022-09-05T06:59:45.279Z,4.32
2022-09-05T07:02:59.354Z,4.80
2022-09-05T07:06:00.958Z,5.22
2022-09-05T07:09:08.493Z,3.85
2022-09-05T07:12:30.003Z,3.92
2022-09-05T07:15:36.197Z,4.43
2022-09-05T07:18:47.702Z,3.70
2022-09-05T07:22:47.039Z,3.40
2022-09-05T07:25:37.602Z,3.40
2022-09-05T07:28:29.520Z,2.90
2022-09-05T07:31:27.644Z,3.20
2022-09-05T07:34:34.593Z,2.97
2022-09-05T07:37:41.852Z,2.70
2022-09-05T07:40:34.173Z,2.70
2022-09-05T07:43:35.396Z,3.08
2022-09-05T07:46:32.400Z,2.78
2022-09-05T07:49:23.657Z,2.53
2022-09-05T07:56:48.138Z,2.80
2022-09-05T07:56:53.304Z,3.10
2022-09-05T07:58:52.322Z,2.90
2022-09-05T08:01:47.928Z,2.35
2022-09-05T08:04:39.403Z,2.30
2022-09-05T08:07:46.988Z,2.00
2022-09-05T08:11:23.245Z,2.30
2022-09-05T08:14:44.297Z,2.05
2022-09-05T08:17:47.730Z,2.55
2022-09-05T08:20:53.984Z,2.00
2022-09-05T08:23:53.132Z,1.75
2022-09-05T08:27:04.635Z,2.22
2022-09-05T08:30:26.335Z,2.20
2022-09-05T08:33:23.390Z,2.53
2022-09-05T08:36:31.425Z,2.30
2022-09-05T08:39:26.136Z,2.15
2022-09-05T08:43:56.006Z,2.67
2022-09-05T08:46:42.190Z,2.17
2022-09-05T08:49:37.014Z,2.47
2022-09-05T08:52:57.849Z,1.88
2022-09-05T08:56:03.822Z,1.95
2022-09-05T08:59:32.837Z,2.20
2022-09-05T09:02:49.061Z,2.25
2022-09-05T09:06:13.261Z,2.20
2022-09-05T09:09:17.064Z,2.13
2022-09-05T09:12:32.432Z,2.10
2022-09-05T09:15:51.290Z,2.42
2022-09-05T09:19:12.406Z,2.17
2022-09-05T09:22:40.960Z,2.30
2022-09-05T09:25:42.009Z,2.10
2022-09-05T09:29:02.278Z,2.30
2022-09-05T09:32:14.325Z,2.28
2022-09-05T09:35:24.249Z,2.15
2022-09-05T09:38:36.966Z,2.03
2022-09-05T09:42:01.477Z,2.13
2022-09-05T09:45:41.475Z,2.22
2022-09-05T09:49:00.350Z,2.50
2022-09-05T09:52:21.134Z,2.30
2022-09-05T09:55:41.712Z,2.05
2022-09-05T09:59:28.630Z,2.03
2022-09-05T10:06:01.621Z,2.40
2022-09-05T10:10:48.190Z,2.45
2022-09-05T10:10:49.905Z,2.75
2022-09-05T10:13:08.139Z,2.17
2022-09-05T10:16:15.823Z,2.30
2022-09-05T10:20:10.399Z,2.40
2022-09-05T10:23:33.660Z,1.95
2022-09-05T10:27:01.503Z,1.80
2022-09-05T10:29:53.331Z,2.10
2022-09-05T10:35:04.804Z,1.83
2022-09-05T10:36:27.034Z,1.77
2022-09-05T10:39:19.040Z,2.00
2022-09-05T10:42:35.049Z,2.03
2022-09-05T10:45:54.266Z,1.80
2022-09-05T10:48:59.292Z,2.10
2022-09-05T10:52:04.084Z,2.38
2022-09-05T10:55:26.238Z,1.95
2022-09-05T11:01:14.816Z,1.73
2022-09-05T11:02:27.453Z,2.10
2022-09-05T11:05:32.281Z,2.00
2022-09-05T11:08:44.019Z,2.03
2022-09-05T11:11:47.691Z,2.20
2022-09-05T11:14:53.191Z,2.30
2022-09-05T11:17:51.835Z,2.10
2022-09-05T11:20:51.442Z,2.05
2022-09-05T11:23:56.926Z,2.10
2022-09-05T11:27:25.652Z,2.00
2022-09-05T11:30:34.471Z,2.08
2022-09-05T11:38:39.191Z,2.13
2022-09-05T11:39:58.053Z,1.75
2022-09-05T11:41:17.067Z,2.08
2022-09-05T11:44:25.815Z,2.20
2022-09-05T11:47:54.233Z,1.98
2022-09-05T11:50:53.579Z,2.10
2022-09-05T11:53:55.117Z,2.00
2022-09-05T11:57:32.788Z,2.00
2022-09-05T12:00:46.730Z,1.95
2022-09-05T12:04:08.671Z,2.00
2022-09-05T12:07:52.691Z,2.05
2022-09-05T12:11:30.066Z,2.20
2022-09-05T12:14:54.922Z,1.70
2022-09-05T12:18:21.645Z,2.35
2022-09-05T12:21:26.257Z,2.17
2022-09-05T12:27:35.273Z,1.85
2022-09-05T12:29:33.602Z,2.13
2022-09-05T12:32:59.560Z,1.67
2022-09-05T12:36:03.950Z,2.10
2022-09-05T12:40:56.525Z,2.15
2022-09-05T12:42:14.591Z,1.70
2022-09-05T12:45:47.494Z,2.15
2022-09-05T12:49:07.016Z,1.90
2022-09-05T12:52:33.797Z,1.92
2022-09-05T12:55:39.735Z,1.60
2022-09-05T13:02:58.168Z,1.60
2022-09-05T13:03:03.634Z,1.98
2022-09-05T13:05:02.727Z,1.77
2022-09-05T13:07:56.965Z,2.20
2022-09-05T13:14:46.545Z,1.50
2022-09-05T13:14:56.826Z,2.15
2022-09-05T13:17:15.732Z,1.60
2022-09-05T13:20:17.072Z,1.77
2022-09-05T13:23:32.173Z,2.10
2022-09-05T13:26:33.900Z,2.03
2022-09-05T13:29:41.242Z,1.63
2022-09-05T13:38:08.054Z,1.83
2022-09-05T13:38:11.972Z,1.60
2022-09-05T13:39:14.304Z,1.63
2022-09-05T13:42:03.604Z,2.03
2022-09-05T13:44:59.231Z,1.60
2022-09-05T13:48:15.882Z,1.60
2022-09-05T13:51:37.020Z,1.88
2022-09-05T13:54:39.664Z,1.80
2022-09-05T13:57:54.477Z,2.08
2022-09-05T14:01:49.785Z,1.35
2022-09-05T14:05:20.720Z,1.77
2022-09-05T14:08:37.492Z,1.58
2022-09-05T14:11:53.532Z,1.77
2022-09-05T14:15:10.166Z,1.67
2022-09-05T14:18:26.603Z,1.73
2022-09-05T14:21:17.941Z,1.58
2022-09-05T14:24:16.813Z,1.67
2022-09-05T14:27:31.783Z,1.73
2022-09-05T14:32:22.269Z,2.00
2022-09-05T14:37:39.803Z,2.08
2022-09-05T14:38:15.196Z,1.88
2022-09-05T14:42:09.456Z,1.70
2022-09-05T14:45:36.877Z,1.90
2022-09-05T14:48:45.698Z,2.00
2022-09-05T14:51:39.252Z,1.90
2022-09-05T15:02:43.731Z,1.80
2022-09-05T15:02:57.667Z,1.60
2022-09-05T15:04:38.607Z,1.35
2022-09-05T15:07:44.249Z,1.58
2022-09-05T15:12:16.062Z,1.70
2022-09-05T15:14:08.376Z,1.70
2022-09-05T15:17:05.034Z,1.38
2022-09-05T15:20:07.312Z,1.70
2022-09-05T15:22:57.619Z,1.83
2022-09-05T15:25:59.411Z,2.03
2022-09-05T15:28:50.771Z,1.80
2022-09-05T15:32:21.737Z,1.80
2022-09-05T15:35:19.576Z,2.00
2022-09-05T15:38:29.994Z,2.00
2022-09-05T15:41:27.642Z,1.88
2022-09-05T15:44:24.454Z,1.80
2022-09-05T15:47:23.885Z,1.85
2022-09-05T15:50:21.804Z,1.60
2022-09-05T15:53:26.355Z,1.90
2022-09-05T15:56:25.248Z,2.00
2022-09-05T15:59:13.902Z,2.08
2022-09-05T16:02:12.281Z,1.63
2022-09-05T16:10:28.011Z,1.95
2022-09-05T16:10:46.860Z,1.80
2022-09-05T16:12:14.002Z,2.05
2022-09-05T16:15:19.828Z,1.90
2022-09-05T16:23:24.935Z,1.77
2022-09-05T16:23:24.939Z,2.17
2022-09-05T16:24:59.864Z,1.70
2022-09-05T16:28:14.929Z,1.67
2022-09-05T16:33:53.295Z,2.00
2022-09-05T16:37:08.653Z,1.90
2022-09-05T16:40:13.733Z,2.10
2022-09-05T16:43:19.623Z,1.65
2022-09-05T16:46:32.616Z,1.70
2022-09-05T16:49:42.208Z,1.90
2022-09-05T16:52:56.284Z,1.55
2022-09-05T16:55:57.084Z,1.70
2022-09-05T16:58:53.386Z,1.90
2022-09-05T17:02:06.608Z,1.80
2022-09-05T17:05:35.056Z,2.05
2022-09-05T17:08:33.182Z,1.95
2022-09-05T17:11:30.064Z,1.77
2022-09-05T17:14:21.897Z,2.17
2022-09-05T17:17:55.273Z,1.75
2022-09-05T17:20:30.759Z,1.70
2022-09-05T17:26:42.774Z,2.25
2022-09-05T17:29:50.034Z,1.92
2022-09-05T17:33:00.530Z,1.92
2022-09-05T17:36:36.386Z,2.22
2022-09-05T17:40:03.908Z,2.30
2022-09-05T17:43:06.505Z,2.75
2022-09-05T17:46:07.280Z,3.20
2022-09-05T17:49:17.708Z,2.53
2022-09-05T17:52:19.629Z,2.53
2022-09-05T17:55:13.266Z,2.53
2022-09-05T17:58:49.718Z,2.35
2022-09-05T18:01:39.399Z,2.25
2022-09-05T18:04:50.750Z,2.20
2022-09-05T18:07:42.805Z,2.60
2022-09-05T18:11:02.319Z,2.08
2022-09-05T18:14:37.293Z,2.70
2022-09-05T18:21:21.440Z,3.00
2022-09-05T18:25:28.398Z,2.53
2022-09-05T18:28:39.733Z,3.20
2022-09-05T18:31:42.587Z,3.10
2022-09-05T18:34:34.445Z,2.83
2022-09-05T18:37:37.517Z,2.63
2022-09-05T18:40:55.735Z,3.13
2022-09-05T18:44:01.622Z,3.30
2022-09-05T18:47:33.320Z,3.33
2022-09-05T18:50:26.266Z,3.45
2022-09-05T18:53:29.885Z,3.10
2022-09-05T18:57:19.786Z,3.53
2022-09-05T19:00:35.024Z,3.53
2022-09-05T19:03:35.157Z,3.10
2022-09-05T19:06:36.918Z,3.00
2022-09-05T19:09:29.967Z,3.28
2022-09-05T19:12:33.158Z,2.90
2022-09-05T19:15:29.716Z,2.97
2022-09-05T19:18:26.903Z,2.88
2022-09-05T19:21:21.446Z,2.78
2022-09-05T19:24:12.044Z,3.10
2022-09-05T19:28:44.455Z,2.75
2022-09-05T19:36:51.243Z,2.72
2022-09-05T19:37:02.458Z,2.78
2022-09-05T19:37:08.542Z,2.95
2022-09-05T19:46:24.806Z,2.78
2022-09-05T19:47:31.655Z,2.65
2022-09-05T19:47:46.418Z,2.10
2022-09-05T19:49:23.380Z,2.33
2022-09-05T19:52:17.745Z,2.47
2022-09-05T19:55:23.937Z,2.33
2022-09-05T19:58:22.131Z,2.33
2022-09-05T20:01:19.873Z,2.30
2022-09-05T20:04:07.731Z,2.47
2022-09-05T20:06:55.451Z,2.28
2022-09-05T20:09:49.242Z,2.47
2022-09-05T20:12:40.232Z,2.42
2022-09-05T20:15:37.007Z,2.78
2022-09-05T20:18:40.501Z,2.75
2022-09-05T20:21:30.146Z,2.97
2022-09-05T20:24:19.168Z,2.20
2022-09-05T20:27:08.285Z,3.10
2022-09-05T20:30:16.103Z,2.80
2022-09-05T20:33:13.506Z,3.25
2022-09-05T20:43:09.524Z,3.00
2022-09-05T20:43:22.127Z,2.78
2022-09-05T20:43:22.841Z,2.55
2022-09-05T20:46:17.501Z,3.45
2022-09-05T20:54:06.289Z,3.40
2022-09-05T20:54:20.332Z,3.63
2022-09-05T20:55:40.070Z,3.58
2022-09-05T20:58:31.273Z,3.85
2022-09-05T21:01:23.784Z,4.63
2022-09-05T21:04:13.891Z,3.60
2022-09-05T21:07:35.598Z,3.70
2022-09-05T21:10:25.000Z,3.30
2022-09-05T21:13:22.541Z,3.50
2022-09-05T21:16:22.398Z,3.25
2022-09-05T21:19:30.871Z,3.10
2022-09-05T21:22:18.529Z,3.00
2022-09-05T21:25:16.992Z,3.22
2022-09-05T21:28:46.054Z,3.25
2022-09-05T21:31:42.823Z,2.45
2022-09-05T21:34:32.854Z,2.60
2022-09-05T21:37:20.869Z,2.60
2022-09-05T21:40:10.497Z,3.22
2022-09-05T21:47:34.094Z,2.88
2022-09-05T21:47:49.876Z,2.40
2022-09-05T21:49:18.999Z,2.20
2022-09-05T21:52:08.209Z,2.80
2022-09-05T21:59:14.485Z,2.45
2022-09-05T21:59:18.013Z,2.30
2022-09-05T22:01:15.027Z,2.72
2022-09-05T22:04:02.978Z,2.33
2022-09-05T22:06:53.071Z,2.40
2022-09-05T22:09:40.865Z,2.45
2022-09-05T22:12:38.434Z,2.70
2022-09-05T22:15:29.586Z,3.10
2022-09-05T22:18:18.355Z,2.33
2022-09-05T22:21:33.894Z,2.53
2022-09-05T22:24:21.161Z,2.93
2022-09-05T22:27:12.478Z,2.45
2022-09-05T22:30:03.084Z,2.70
2022-09-05T22:32:50.892Z,2.20
2022-09-05T22:35:40.060Z,2.67
2022-09-05T22:38:27.819Z,2.38
2022-09-05T22:41:15.740Z,2.85
2022-09-05T22:44:04.959Z,2.80
2022-09-05T22:46:53.258Z,2.80
2022-09-05T22:49:41.374Z,2.83
2022-09-05T22:52:29.084Z,2.80
2022-09-05T22:55:17.284Z,3.00
2022-09-05T22:58:06.959Z,2.88
2022-09-05T23:00:54.720Z,2.90
2022-09-05T23:03:42.682Z,2.85
2022-09-05T23:06:30.486Z,2.75
2022-09-05T23:09:18.223Z,2.97
2022-09-05T23:12:06.019Z,2.60
2022-09-05T23:14:54.129Z,2.55
2022-09-05T23:17:42.480Z,2.80
2022-09-05T23:20:31.528Z,2.47
2022-09-05T23:23:19.292Z,3.03
2022-09-05T23:26:15.198Z,3.10
2022-09-05T23:29:02.930Z,3.03
2022-09-05T23:31:51.018Z,3.10
2022-09-05T23:34:39.059Z,2.88
2022-09-05T23:37:26.779Z,3.22
2022-09-05T23:40:21.768Z,2.88
2022-09-05T23:43:09.914Z,2.63
2022-09-05T23:45:57.847Z,2.63
2022-09-05T23:48:45.594Z,3.03
2022-09-05T23:51:33.435Z,2.65
2022-09-05T23:54:21.216Z,2.92
2022-09-05T23:57:08.907Z,3.15
2022-09-05T23:59:56.660Z,2.85
